CYQA

Muskoka Airport

Muskoka, , Canada
METAR CYQA 172100Z AUTO 16013KT 9SM BKN036 M02/M08 A2992 RMK PRESFR SLP154
Observed Flight Rules
Feb-17 @ 21:00 UTC (31 minutes ago) Visual Flight Rules
Wind Visibility Clouds
160° at 13 knots 9 miles
  • Broken at 3,600' AGL
Temperatures Readings
Current -2°C / 28°F
Dewpoint -8°C / 18°F
Humidity 64%
Altimeter 29.92" Hg
Pressure 1015.4 hPa
Elevation 282
METAR CYQA 172100Z AUTO 16013KT 9SM BKN036 M02/M08 A2992 RMK PRESFR SLP154
Observed Flight Rules
Feb-17 @ 21:00 UTC
(31 minutes ago)
VFR
Wind Visibility
160° at 13 knots 9 miles
Clouds
  • Broken at 3,600' AGL
Temperature Dewpoint
-2°C / 28°F -8°C / 18°F
Humidity Altimeter Pressure
64% 29.92" Hg 1015.4 hPa